createdAt,value
2024-01-20T00:06:04.610Z,5.6
2024-01-20T00:12:26.647Z,10.6
2024-01-20T00:18:46.684Z,10.6
2024-01-20T00:25:08.578Z,19.8
2024-01-20T00:31:28.605Z,19.8
2024-01-20T00:37:50.747Z,8.3
2024-01-20T00:44:10.787Z,8.3
2024-01-20T00:50:32.641Z,20.1
2024-01-20T00:56:52.684Z,20.1
2024-01-20T01:03:14.562Z,16.1
2024-01-20T01:09:34.581Z,16.1
2024-01-20T01:15:56.742Z,15
2024-01-20T01:22:16.685Z,15
2024-01-20T01:28:38.667Z,15.9
2024-01-20T01:34:58.638Z,15.9
2024-01-20T01:41:19.722Z,16.1
2024-01-20T01:47:39.703Z,16.1
2024-01-20T01:54:01.828Z,25.7
2024-01-20T02:00:21.631Z,25.7
2024-01-20T02:06:43.794Z,17.5
2024-01-20T02:13:03.774Z,17.5
2024-01-20T02:19:25.614Z,11.9
2024-01-20T02:25:45.837Z,11.9
2024-01-20T02:32:07.804Z,18.1
2024-01-20T02:38:27.717Z,18.1
2024-01-20T02:44:49.805Z,17.2
2024-01-20T02:51:09.590Z,17.2
2024-01-20T02:57:31.599Z,14.9
2024-01-20T03:03:51.777Z,14.9
2024-01-20T03:10:13.762Z,19.8
2024-01-20T03:16:33.870Z,19.8
2024-01-20T03:22:55.664Z,19.1
2024-01-20T03:29:15.613Z,19.1
2024-01-20T03:35:37.598Z,11.1
2024-01-20T03:41:57.636Z,11.1
2024-01-20T03:48:19.806Z,21.3
2024-01-20T04:11:05.039Z,37.8
2024-01-20T04:17:24.580Z,37.8
2024-01-20T04:23:46.585Z,37.8
2024-01-20T04:30:06.579Z,37.8
2024-01-20T04:36:28.605Z,11.2
2024-01-20T04:42:48.699Z,11.2
2024-01-20T04:49:10.638Z,24.5
2024-01-20T04:55:30.623Z,24.5
2024-01-20T05:01:52.586Z,15.6
2024-01-20T05:08:12.701Z,15.6
2024-01-20T05:14:34.546Z,13.8
2024-01-20T05:20:54.679Z,13.8
2024-01-20T05:27:16.696Z,13.6
2024-01-20T05:33:36.839Z,13.6
2024-01-20T05:39:58.543Z,11.5
2024-01-20T05:46:18.604Z,11.5
2024-01-20T05:52:40.529Z,16.7
2024-01-20T05:59:00.638Z,16.7
2024-01-20T06:05:22.826Z,10.2
2024-01-20T06:11:42.676Z,10.2
2024-01-20T06:18:04.845Z,10.6
2024-01-20T06:24:24.637Z,10.6
2024-01-20T06:30:46.763Z,21.2
2024-01-20T06:37:06.570Z,21.2
2024-01-20T06:43:28.641Z,22
2024-01-20T06:49:48.674Z,22
2024-01-20T06:56:10.635Z,28.7
2024-01-20T07:02:30.628Z,28.7
2024-01-20T07:08:52.727Z,18.1
2024-01-20T07:15:12.679Z,18.1
2024-01-20T07:21:34.727Z,38.3
2024-01-20T07:27:54.631Z,38.3
2024-01-20T07:34:16.726Z,7.5
2024-01-20T07:40:36.583Z,7.5
2024-01-20T07:46:58.838Z,9.4
2024-01-20T07:53:18.638Z,9.4
2024-01-20T07:59:40.629Z,24.5
2024-01-20T08:06:00.574Z,24.5
2024-01-20T08:12:22.576Z,13.1
2024-01-20T08:18:42.759Z,13.1
2024-01-20T08:25:04.720Z,21.9
2024-01-20T08:31:24.635Z,21.9
2024-01-20T08:37:46.633Z,14.9
2024-01-20T08:44:06.545Z,14.9
2024-01-20T09:07:46.497Z,42.1
2024-01-20T09:14:07.542Z,42.1
2024-01-20T09:20:27.700Z,42.1
2024-01-20T09:26:49.637Z,22.7
2024-01-20T09:33:09.695Z,22.7
2024-01-20T09:39:31.624Z,61.9
2024-01-20T09:45:51.616Z,61.9
2024-01-20T09:52:13.545Z,24.6
2024-01-20T09:58:33.804Z,24.6
2024-01-20T10:04:55.780Z,18.3
2024-01-20T10:11:15.604Z,18.3
2024-01-20T10:17:37.684Z,15.3
2024-01-20T10:23:57.624Z,15.3
2024-01-20T10:30:21.195Z,17.3
2024-01-20T10:36:39.621Z,17.3
2024-01-20T10:43:01.657Z,19.5
2024-01-20T10:49:21.666Z,19.5
2024-01-20T10:55:43.634Z,16
2024-01-20T11:02:03.719Z,16
2024-01-20T11:08:25.897Z,16.4
2024-01-20T11:14:45.606Z,16.4
2024-01-20T11:21:07.725Z,16.1
2024-01-20T11:27:27.574Z,16.1
2024-01-20T11:33:49.725Z,12.2
2024-01-20T11:40:09.647Z,12.2
2024-01-20T11:46:31.587Z,20.1
2024-01-20T11:52:51.583Z,20.1
2024-01-20T11:59:13.611Z,13.1
2024-01-20T12:05:33.645Z,13.1
2024-01-20T12:11:55.617Z,30.2
2024-01-20T12:18:15.825Z,30.2
2024-01-20T12:24:37.694Z,15.2
2024-01-20T12:30:57.543Z,15.2
2024-01-20T12:37:19.767Z,11.6
2024-01-20T12:43:39.764Z,11.6
2024-01-20T12:50:01.874Z,17.4
2024-01-20T12:56:21.735Z,17.4
2024-01-20T13:02:43.629Z,13.8
2024-01-20T13:09:03.630Z,13.8
2024-01-20T13:15:25.795Z,15.4
2024-01-20T13:21:45.696Z,15.4
2024-01-20T13:28:07.631Z,32.6
2024-01-20T13:34:27.692Z,32.6
2024-01-20T13:40:49.547Z,11.8
2024-01-20T14:04:18.181Z,22.8
2024-01-20T14:10:37.541Z,22.8
2024-01-20T14:16:59.707Z,22.8
2024-01-20T14:23:20.065Z,22.8
2024-01-20T14:29:42.135Z,9.4
2024-01-20T14:36:01.699Z,9.4
2024-01-20T14:42:23.743Z,13.9
2024-01-20T14:48:43.668Z,13.9
2024-01-20T14:55:05.615Z,10
2024-01-20T15:01:25.641Z,10
2024-01-20T15:07:47.937Z,11.4
2024-01-20T15:14:07.789Z,11.4
2024-01-20T15:20:29.638Z,16.7
2024-01-20T15:26:49.690Z,16.7
2024-01-20T15:33:11.867Z,8.6
2024-01-20T15:39:31.618Z,8.6
2024-01-20T15:45:53.627Z,11.3
2024-01-20T15:52:13.567Z,11.3
2024-01-20T15:58:35.956Z,13.6
2024-01-20T16:04:55.642Z,13.6
2024-01-20T16:11:17.588Z,12
2024-01-20T16:17:37.854Z,12
2024-01-20T16:23:59.842Z,15.9
2024-01-20T16:30:19.685Z,15.9
2024-01-20T16:36:41.625Z,11.1
2024-01-20T16:43:01.702Z,11.1
2024-01-20T16:49:23.842Z,15.9
2024-01-20T16:55:43.742Z,15.9
2024-01-20T17:02:05.663Z,12.3
2024-01-20T17:08:25.729Z,12.3
2024-01-20T17:14:47.782Z,26.3
2024-01-20T17:21:07.603Z,26.3
2024-01-20T17:27:29.720Z,9.3
2024-01-20T17:33:50.938Z,9.3
2024-01-20T17:40:11.682Z,16.3
2024-01-20T17:46:31.717Z,16.3
2024-01-20T17:52:53.941Z,6
2024-01-20T17:59:13.566Z,6
2024-01-20T18:05:35.926Z,16.9
2024-01-20T18:22:42.472Z,24.9
2024-01-20T18:29:03.539Z,24.9
2024-01-20T18:35:23.591Z,24.9
2024-01-20T18:41:45.538Z,11.8
2024-01-20T18:48:05.019Z,11.8
2024-01-20T18:54:26.669Z,13.5
2024-01-20T19:00:46.846Z,13.5
2024-01-20T19:07:08.687Z,10.6
2024-01-20T19:13:28.647Z,10.6
2024-01-20T19:19:51.130Z,15.8
2024-01-20T19:26:10.642Z,15.8
2024-01-20T19:32:32.698Z,13.7
2024-01-20T19:38:52.739Z,13.7
2024-01-20T19:45:14.745Z,17.4
2024-01-20T19:51:34.688Z,17.4
2024-01-20T19:57:56.618Z,10.1
2024-01-20T20:04:16.719Z,10.1
2024-01-20T20:10:38.561Z,16.5
2024-01-20T20:16:58.637Z,16.5
2024-01-20T20:23:20.733Z,12.6
2024-01-20T20:29:40.554Z,12.6
2024-01-20T20:36:02.649Z,12.8
2024-01-20T20:42:22.814Z,12.8
2024-01-20T20:48:44.771Z,8.7
2024-01-20T20:55:04.724Z,8.7
2024-01-20T21:01:26.608Z,5.2
2024-01-20T21:07:46.565Z,5.2
2024-01-20T21:14:08.798Z,8.3
2024-01-20T21:20:28.556Z,8.3
2024-01-20T21:26:50.616Z,11.6
2024-01-20T21:33:10.953Z,11.6
2024-01-20T21:39:33.192Z,12.3
2024-01-20T21:45:52.924Z,12.3
2024-01-20T21:52:14.758Z,9.3
2024-01-20T21:58:34.535Z,9.3
2024-01-20T22:04:56.837Z,10.8
2024-01-20T22:11:16.604Z,10.8
2024-01-20T22:17:38.722Z,8.3
2024-01-20T22:23:58.781Z,8.3
2024-01-20T22:30:20.723Z,17.1
2024-01-20T22:36:40.628Z,17.1
2024-01-20T22:59:26.528Z,7.9
2024-01-20T23:21:13.672Z,25.3
2024-01-20T23:27:33.631Z,25.3
2024-01-20T23:33:55.800Z,25.3
2024-01-20T23:40:15.620Z,25.3
2024-01-20T23:46:37.687Z,17.4
2024-01-20T23:53:01.267Z,17.4
2024-01-20T23:59:22.553Z,8.1
